sensor_id;sensor_type;location;lat;lon;timestamp;temperature;humidity
20158;DHT22;10239;56.820;24.416;2023-09-30T00:01:32;18.20;99.90
20158;DHT22;10239;56.820;24.416;2023-09-30T00:04:00;18.30;99.90
20158;DHT22;10239;56.820;24.416;2023-09-30T00:06:30;18.30;99.90
20158;DHT22;10239;56.820;24.416;2023-09-30T00:08:58;18.10;99.90
20158;DHT22;10239;56.820;24.416;2023-09-30T00:11:26;18.10;99.90
20158;DHT22;10239;56.820;24.416;2023-09-30T00:13:54;17.90;99.90
20158;DHT22;10239;56.820;24.416;2023-09-30T00:16:23;17.90;99.90
20158;DHT22;10239;56.820;24.416;2023-09-30T00:18:51;17.90;99.90
20158;DHT22;10239;56.820;24.416;2023-09-30T00:21:20;17.80;99.90
20158;DHT22;10239;56.820;24.416;2023-09-30T00:23:48;17.80;99.90
20158;DHT22;10239;56.820;24.416;2023-09-30T00:26:16;17.90;99.90
20158;DHT22;10239;56.820;24.416;2023-09-30T00:28:46;17.90;99.90
20158;DHT22;10239;56.820;24.416;2023-09-30T00:31:14;17.80;99.90
20158;DHT22;10239;56.820;24.416;2023-09-30T00:33:42;17.90;99.90
20158;DHT22;10239;56.820;24.416;2023-09-30T00:36:10;17.90;99.90
20158;DHT22;10239;56.820;24.416;2023-09-30T00:38:43;18.10;99.90
20158;DHT22;10239;56.820;24.416;2023-09-30T00:41:11;18.10;99.90
20158;DHT22;10239;56.820;24.416;2023-09-30T00:43:39;18.20;99.90
20158;DHT22;10239;56.820;24.416;2023-09-30T00:48:37;18.10;99.90
20158;DHT22;10239;56.820;24.416;2023-09-30T00:51:05;18.10;99.90
20158;DHT22;10239;56.820;24.416;2023-09-30T00:53:33;18.10;99.90
20158;DHT22;10239;56.820;24.416;2023-09-30T00:56:02;18.10;99.90
20158;DHT22;10239;56.820;24.416;2023-09-30T00:58:30;18.20;99.90
20158;DHT22;10239;56.820;24.416;2023-09-30T01:00:59;18.20;99.90
20158;DHT22;10239;56.820;24.416;2023-09-30T01:03:27;18.10;99.90
20158;DHT22;10239;56.820;24.416;2023-09-30T01:05:55;18.20;99.90
20158;DHT22;10239;56.820;24.416;2023-09-30T01:08:23;18.30;99.90
20158;DHT22;10239;56.820;24.416;2023-09-30T01:10:51;18.20;99.90
20158;DHT22;10239;56.820;24.416;2023-09-30T01:13:19;18.20;99.90
20158;DHT22;10239;56.820;24.416;2023-09-30T01:15:46;18.20;99.90
20158;DHT22;10239;56.820;24.416;2023-09-30T01:18:16;18.00;99.90
20158;DHT22;10239;56.820;24.416;2023-09-30T01:20:44;17.80;99.90
20158;DHT22;10239;56.820;24.416;2023-09-30T01:23:12;17.80;99.90
20158;DHT22;10239;56.820;24.416;2023-09-30T01:25:40;17.90;99.90
20158;DHT22;10239;56.820;24.416;2023-09-30T01:28:09;17.80;99.90
20158;DHT22;10239;56.820;24.416;2023-09-30T01:30:37;17.80;99.90
20158;DHT22;10239;56.820;24.416;2023-09-30T01:33:05;17.90;99.90
20158;DHT22;10239;56.820;24.416;2023-09-30T01:35:35;18.00;99.90
20158;DHT22;10239;56.820;24.416;2023-09-30T01:38:04;18.10;99.90
20158;DHT22;10239;56.820;24.416;2023-09-30T01:40:32;18.20;99.90
20158;DHT22;10239;56.820;24.416;2023-09-30T01:43:00;18.30;99.90
20158;DHT22;10239;56.820;24.416;2023-09-30T01:45:28;18.30;99.90
20158;DHT22;10239;56.820;24.416;2023-09-30T01:47:58;18.20;99.90
20158;DHT22;10239;56.820;24.416;2023-09-30T01:50:26;18.10;99.90
20158;DHT22;10239;56.820;24.416;2023-09-30T01:52:55;17.80;99.90
20158;DHT22;10239;56.820;24.416;2023-09-30T01:55:22;17.80;99.90
20158;DHT22;10239;56.820;24.416;2023-09-30T01:57:49;17.50;99.90
20158;DHT22;10239;56.820;24.416;2023-09-30T02:00:17;17.80;99.90
20158;DHT22;10239;56.820;24.416;2023-09-30T02:02:44;17.80;99.90
20158;DHT22;10239;56.820;24.416;2023-09-30T02:05:12;17.80;99.90
20158;DHT22;10239;56.820;24.416;2023-09-30T02:07:40;17.60;99.90
20158;DHT22;10239;56.820;24.416;2023-09-30T02:10:09;17.70;99.90
20158;DHT22;10239;56.820;24.416;2023-09-30T02:12:37;17.70;99.90
20158;DHT22;10239;56.820;24.416;2023-09-30T02:15:06;17.80;99.90
20158;DHT22;10239;56.820;24.416;2023-09-30T02:17:34;17.90;99.90
20158;DHT22;10239;56.820;24.416;2023-09-30T02:20:02;17.80;99.90
20158;DHT22;10239;56.820;24.416;2023-09-30T02:22:34;17.80;99.90
20158;DHT22;10239;56.820;24.416;2023-09-30T02:25:03;17.80;99.90
20158;DHT22;10239;56.820;24.416;2023-09-30T02:27:34;17.90;99.90
20158;DHT22;10239;56.820;24.416;2023-09-30T02:30:02;18.00;99.90
20158;DHT22;10239;56.820;24.416;2023-09-30T02:32:29;17.90;99.90
20158;DHT22;10239;56.820;24.416;2023-09-30T02:34:57;18.00;99.90
20158;DHT22;10239;56.820;24.416;2023-09-30T02:37:25;18.10;99.90
20158;DHT22;10239;56.820;24.416;2023-09-30T02:39:54;18.10;99.90
20158;DHT22;10239;56.820;24.416;2023-09-30T02:42:22;18.20;99.90
20158;DHT22;10239;56.820;24.416;2023-09-30T02:44:51;18.20;99.90
20158;DHT22;10239;56.820;24.416;2023-09-30T02:47:19;18.30;99.90
20158;DHT22;10239;56.820;24.416;2023-09-30T02:49:47;18.30;99.90
20158;DHT22;10239;56.820;24.416;2023-09-30T02:52:14;18.20;99.90
20158;DHT22;10239;56.820;24.416;2023-09-30T02:54:42;18.20;99.90
20158;DHT22;10239;56.820;24.416;2023-09-30T02:57:10;18.20;99.90
20158;DHT22;10239;56.820;24.416;2023-09-30T02:59:38;18.30;99.90
20158;DHT22;10239;56.820;24.416;2023-09-30T03:02:05;18.20;99.90
20158;DHT22;10239;56.820;24.416;2023-09-30T03:04:34;18.30;99.90
20158;DHT22;10239;56.820;24.416;2023-09-30T03:07:02;18.40;99.90
20158;DHT22;10239;56.820;24.416;2023-09-30T03:09:29;18.50;99.90
20158;DHT22;10239;56.820;24.416;2023-09-30T03:11:57;18.50;99.90
20158;DHT22;10239;56.820;24.416;2023-09-30T03:14:26;18.60;99.90
20158;DHT22;10239;56.820;24.416;2023-09-30T03:16:58;18.60;99.90
20158;DHT22;10239;56.820;24.416;2023-09-30T03:19:26;18.70;99.90
20158;DHT22;10239;56.820;24.416;2023-09-30T03:21:54;18.60;99.90
20158;DHT22;10239;56.820;24.416;2023-09-30T03:24:22;18.60;99.90
20158;DHT22;10239;56.820;24.416;2023-09-30T03:26:50;18.60;99.90
20158;DHT22;10239;56.820;24.416;2023-09-30T03:29:18;18.40;99.90
20158;DHT22;10239;56.820;24.416;2023-09-30T03:31:46;18.30;99.90
20158;DHT22;10239;56.820;24.416;2023-09-30T03:34:15;17.90;99.90
20158;DHT22;10239;56.820;24.416;2023-09-30T03:36:43;17.80;99.90
20158;DHT22;10239;56.820;24.416;2023-09-30T03:39:11;17.70;99.90
20158;DHT22;10239;56.820;24.416;2023-09-30T03:41:42;17.80;99.90
20158;DHT22;10239;56.820;24.416;2023-09-30T03:44:10;17.50;99.90
20158;DHT22;10239;56.820;24.416;2023-09-30T03:46:37;17.40;99.90
20158;DHT22;10239;56.820;24.416;2023-09-30T03:49:05;17.50;99.90
20158;DHT22;10239;56.820;24.416;2023-09-30T03:51:35;17.40;99.90
20158;DHT22;10239;56.820;24.416;2023-09-30T03:54:04;17.60;99.90
20158;DHT22;10239;56.820;24.416;2023-09-30T03:56:33;17.70;99.90
20158;DHT22;10239;56.820;24.416;2023-09-30T03:59:01;17.60;99.90
20158;DHT22;10239;56.820;24.416;2023-09-30T04:01:29;17.70;99.90
20158;DHT22;10239;56.820;24.416;2023-09-30T04:03:58;17.60;99.90
20158;DHT22;10239;56.820;24.416;2023-09-30T04:06:26;17.60;99.90
20158;DHT22;10239;56.820;24.416;2023-09-30T04:08:56;17.60;99.90
20158;DHT22;10239;56.820;24.416;2023-09-30T04:11:27;17.50;99.90
20158;DHT22;10239;56.820;24.416;2023-09-30T04:13:54;17.60;99.90
20158;DHT22;10239;56.820;24.416;2023-09-30T04:16:22;17.40;99.90
20158;DHT22;10239;56.820;24.416;2023-09-30T04:18:56;17.30;99.90
20158;DHT22;10239;56.820;24.416;2023-09-30T04:21:24;17.30;99.90
20158;DHT22;10239;56.820;24.416;2023-09-30T04:23:52;17.20;99.90
20158;DHT22;10239;56.820;24.416;2023-09-30T04:26:21;17.10;99.90
20158;DHT22;10239;56.820;24.416;2023-09-30T04:28:49;17.20;99.90
20158;DHT22;10239;56.820;24.416;2023-09-30T04:31:16;17.30;99.90
20158;DHT22;10239;56.820;24.416;2023-09-30T04:33:48;17.20;99.90
20158;DHT22;10239;56.820;24.416;2023-09-30T04:36:15;17.20;99.90
20158;DHT22;10239;56.820;24.416;2023-09-30T04:38:43;17.20;99.90
20158;DHT22;10239;56.820;24.416;2023-09-30T04:41:11;17.30;99.90
20158;DHT22;10239;56.820;24.416;2023-09-30T04:43:39;17.20;99.90
20158;DHT22;10239;56.820;24.416;2023-09-30T04:46:07;17.10;99.90
20158;DHT22;10239;56.820;24.416;2023-09-30T04:48:36;16.90;99.90
20158;DHT22;10239;56.820;24.416;2023-09-30T04:51:06;16.90;99.90
20158;DHT22;10239;56.820;24.416;2023-09-30T04:53:37;16.90;99.90
20158;DHT22;10239;56.820;24.416;2023-09-30T04:56:05;17.10;99.90
20158;DHT22;10239;56.820;24.416;2023-09-30T04:58:32;16.90;99.90
20158;DHT22;10239;56.820;24.416;2023-09-30T05:01:00;16.70;99.90
20158;DHT22;10239;56.820;24.416;2023-09-30T05:03:27;17.00;99.90
20158;DHT22;10239;56.820;24.416;2023-09-30T05:05:55;16.80;99.90
20158;DHT22;10239;56.820;24.416;2023-09-30T05:08:25;16.80;99.90
20158;DHT22;10239;56.820;24.416;2023-09-30T05:10:54;16.70;99.90
20158;DHT22;10239;56.820;24.416;2023-09-30T05:13:23;16.80;99.90
20158;DHT22;10239;56.820;24.416;2023-09-30T05:15:51;16.80;99.90
20158;DHT22;10239;56.820;24.416;2023-09-30T05:18:19;17.00;99.90
20158;DHT22;10239;56.820;24.416;2023-09-30T05:20:47;17.10;99.90
20158;DHT22;10239;56.820;24.416;2023-09-30T05:23:17;17.50;99.90
20158;DHT22;10239;56.820;24.416;2023-09-30T05:25:45;17.70;99.90
20158;DHT22;10239;56.820;24.416;2023-09-30T05:28:13;17.80;99.90
20158;DHT22;10239;56.820;24.416;2023-09-30T05:30:41;17.70;99.90
20158;DHT22;10239;56.820;24.416;2023-09-30T05:33:09;17.70;99.90
20158;DHT22;10239;56.820;24.416;2023-09-30T05:35:47;17.60;99.90
20158;DHT22;10239;56.820;24.416;2023-09-30T05:38:15;17.70;99.90
20158;DHT22;10239;56.820;24.416;2023-09-30T05:40:43;17.40;99.90
20158;DHT22;10239;56.820;24.416;2023-09-30T05:43:11;17.70;99.90
20158;DHT22;10239;56.820;24.416;2023-09-30T05:45:41;17.70;99.90
20158;DHT22;10239;56.820;24.416;2023-09-30T05:48:17;17.60;99.90
20158;DHT22;10239;56.820;24.416;2023-09-30T05:50:44;17.40;99.90
20158;DHT22;10239;56.820;24.416;2023-09-30T05:53:13;17.60;99.90
20158;DHT22;10239;56.820;24.416;2023-09-30T05:55:42;17.70;99.90
20158;DHT22;10239;56.820;24.416;2023-09-30T05:58:14;17.80;99.90
20158;DHT22;10239;56.820;24.416;2023-09-30T06:00:45;17.90;99.90
20158;DHT22;10239;56.820;24.416;2023-09-30T06:03:13;18.10;99.90
20158;DHT22;10239;56.820;24.416;2023-09-30T06:05:43;18.40;99.90
20158;DHT22;10239;56.820;24.416;2023-09-30T06:08:10;19.00;99.90
20158;DHT22;10239;56.820;24.416;2023-09-30T06:10:41;19.50;99.90
20158;DHT22;10239;56.820;24.416;2023-09-30T06:13:13;19.50;99.90
20158;DHT22;10239;56.820;24.416;2023-09-30T06:15:42;19.40;99.90
20158;DHT22;10239;56.820;24.416;2023-09-30T06:18:11;19.20;99.90
20158;DHT22;10239;56.820;24.416;2023-09-30T06:20:41;19.00;99.90
20158;DHT22;10239;56.820;24.416;2023-09-30T06:23:09;18.90;99.90
20158;DHT22;10239;56.820;24.416;2023-09-30T06:25:37;19.00;99.90
20158;DHT22;10239;56.820;24.416;2023-09-30T06:28:09;18.90;99.90
20158;DHT22;10239;56.820;24.416;2023-09-30T06:30:37;18.80;99.90
20158;DHT22;10239;56.820;24.416;2023-09-30T06:33:09;18.90;99.90
20158;DHT22;10239;56.820;24.416;2023-09-30T06:35:41;18.90;99.90
20158;DHT22;10239;56.820;24.416;2023-09-30T06:38:21;19.00;99.90
20158;DHT22;10239;56.820;24.416;2023-09-30T06:40:48;19.00;99.90
20158;DHT22;10239;56.820;24.416;2023-09-30T06:43:16;19.00;99.90
20158;DHT22;10239;56.820;24.416;2023-09-30T06:45:45;19.00;99.90
20158;DHT22;10239;56.820;24.416;2023-09-30T06:48:14;18.90;99.90
20158;DHT22;10239;56.820;24.416;2023-09-30T06:53:12;19.00;99.90
20158;DHT22;10239;56.820;24.416;2023-09-30T06:55:40;18.80;99.90
20158;DHT22;10239;56.820;24.416;2023-09-30T06:58:08;18.80;99.90
20158;DHT22;10239;56.820;24.416;2023-09-30T07:00:40;18.80;99.90
20158;DHT22;10239;56.820;24.416;2023-09-30T07:03:08;19.00;99.90
20158;DHT22;10239;56.820;24.416;2023-09-30T07:05:37;18.80;99.90
20158;DHT22;10239;56.820;24.416;2023-09-30T07:08:07;18.80;99.90
20158;DHT22;10239;56.820;24.416;2023-09-30T07:10:35;18.70;99.90
20158;DHT22;10239;56.820;24.416;2023-09-30T07:13:03;18.90;99.90
20158;DHT22;10239;56.820;24.416;2023-09-30T07:15:31;18.90;99.90
20158;DHT22;10239;56.820;24.416;2023-09-30T07:17:59;19.20;99.90
20158;DHT22;10239;56.820;24.416;2023-09-30T07:20:27;19.80;99.90
20158;DHT22;10239;56.820;24.416;2023-09-30T07:23:02;20.10;99.90
20158;DHT22;10239;56.820;24.416;2023-09-30T07:25:45;20.20;99.90
20158;DHT22;10239;56.820;24.416;2023-09-30T07:28:13;20.10;99.90
20158;DHT22;10239;56.820;24.416;2023-09-30T07:30:41;20.20;99.90
20158;DHT22;10239;56.820;24.416;2023-09-30T07:33:12;20.10;99.90
20158;DHT22;10239;56.820;24.416;2023-09-30T07:35:40;20.20;99.90
20158;DHT22;10239;56.820;24.416;2023-09-30T07:38:08;20.30;99.90
20158;DHT22;10239;56.820;24.416;2023-09-30T07:40:35;20.30;99.90
20158;DHT22;10239;56.820;24.416;2023-09-30T07:43:03;20.40;99.90
20158;DHT22;10239;56.820;24.416;2023-09-30T07:45:31;20.40;99.90
20158;DHT22;10239;56.820;24.416;2023-09-30T07:47:59;20.50;99.90
20158;DHT22;10239;56.820;24.416;2023-09-30T07:50:31;20.70;99.90
20158;DHT22;10239;56.820;24.416;2023-09-30T07:52:59;21.00;99.90
20158;DHT22;10239;56.820;24.416;2023-09-30T07:55:28;21.40;99.90
20158;DHT22;10239;56.820;24.416;2023-09-30T07:57:57;21.90;99.90
20158;DHT22;10239;56.820;24.416;2023-09-30T08:00:27;22.00;99.90
20158;DHT22;10239;56.820;24.416;2023-09-30T08:02:55;21.90;99.90
20158;DHT22;10239;56.820;24.416;2023-09-30T08:05:23;21.90;99.90
20158;DHT22;10239;56.820;24.416;2023-09-30T08:07:51;21.70;99.90
20158;DHT22;10239;56.820;24.416;2023-09-30T08:10:19;21.70;99.90
20158;DHT22;10239;56.820;24.416;2023-09-30T08:12:46;21.60;99.90
20158;DHT22;10239;56.820;24.416;2023-09-30T08:15:17;21.80;99.90
20158;DHT22;10239;56.820;24.416;2023-09-30T08:17:44;22.10;99.90
20158;DHT22;10239;56.820;24.416;2023-09-30T08:20:12;22.30;99.90
20158;DHT22;10239;56.820;24.416;2023-09-30T08:22:41;22.70;99.90
20158;DHT22;10239;56.820;24.416;2023-09-30T08:25:09;23.90;99.90
20158;DHT22;10239;56.820;24.416;2023-09-30T08:27:37;24.90;99.90
20158;DHT22;10239;56.820;24.416;2023-09-30T08:30:07;24.70;99.90
20158;DHT22;10239;56.820;24.416;2023-09-30T08:32:35;24.70;99.90
20158;DHT22;10239;56.820;24.416;2023-09-30T08:35:04;24.60;99.90
20158;DHT22;10239;56.820;24.416;2023-09-30T08:37:31;24.20;99.90
20158;DHT22;10239;56.820;24.416;2023-09-30T08:40:01;24.00;99.90
20158;DHT22;10239;56.820;24.416;2023-09-30T08:42:33;24.00;99.90
20158;DHT22;10239;56.820;24.416;2023-09-30T08:45:04;24.00;99.90
20158;DHT22;10239;56.820;24.416;2023-09-30T08:47:35;23.80;99.90
20158;DHT22;10239;56.820;24.416;2023-09-30T08:50:07;23.70;99.90
20158;DHT22;10239;56.820;24.416;2023-09-30T08:52:56;23.20;99.90
20158;DHT22;10239;56.820;24.416;2023-09-30T08:55:24;23.20;99.90
20158;DHT22;10239;56.820;24.416;2023-09-30T08:57:56;23.10;99.90
20158;DHT22;10239;56.820;24.416;2023-09-30T09:00:27;22.90;99.90
20158;DHT22;10239;56.820;24.416;2023-09-30T09:02:56;22.70;99.90
20158;DHT22;10239;56.820;24.416;2023-09-30T09:05:24;22.40;99.90
20158;DHT22;10239;56.820;24.416;2023-09-30T09:07:51;22.30;99.90
20158;DHT22;10239;56.820;24.416;2023-09-30T09:10:19;22.20;99.90
20158;DHT22;10239;56.820;24.416;2023-09-30T09:12:55;22.10;99.90
20158;DHT22;10239;56.820;24.416;2023-09-30T09:15:28;22.00;99.90
20158;DHT22;10239;56.820;24.416;2023-09-30T09:17:56;21.90;99.90
20158;DHT22;10239;56.820;24.416;2023-09-30T09:20:25;21.70;99.90
20158;DHT22;10239;56.820;24.416;2023-09-30T09:22:54;21.60;99.90
20158;DHT22;10239;56.820;24.416;2023-09-30T09:25:23;21.50;99.90
20158;DHT22;10239;56.820;24.416;2023-09-30T09:27:52;21.40;99.90
20158;DHT22;10239;56.820;24.416;2023-09-30T09:30:24;21.20;99.90
20158;DHT22;10239;56.820;24.416;2023-09-30T09:33:00;21.30;99.90
20158;DHT22;10239;56.820;24.416;2023-09-30T09:35:29;21.30;99.90
20158;DHT22;10239;56.820;24.416;2023-09-30T09:38:07;21.20;99.90
20158;DHT22;10239;56.820;24.416;2023-09-30T09:40:36;21.10;99.90
20158;DHT22;10239;56.820;24.416;2023-09-30T09:43:05;21.00;99.90
20158;DHT22;10239;56.820;24.416;2023-09-30T09:45:35;20.90;99.90
20158;DHT22;10239;56.820;24.416;2023-09-30T09:48:04;20.90;99.90
20158;DHT22;10239;56.820;24.416;2023-09-30T09:50:32;20.90;99.90
20158;DHT22;10239;56.820;24.416;2023-09-30T09:53:00;21.00;99.90
20158;DHT22;10239;56.820;24.416;2023-09-30T09:55:30;21.00;99.90
20158;DHT22;10239;56.820;24.416;2023-09-30T09:58:02;21.00;99.90
20158;DHT22;10239;56.820;24.416;2023-09-30T10:00:30;20.80;99.90
20158;DHT22;10239;56.820;24.416;2023-09-30T10:02:59;20.80;99.90
20158;DHT22;10239;56.820;24.416;2023-09-30T10:05:27;20.70;99.90
20158;DHT22;10239;56.820;24.416;2023-09-30T10:08:03;20.70;99.90
20158;DHT22;10239;56.820;24.416;2023-09-30T10:10:36;20.60;99.90
20158;DHT22;10239;56.820;24.416;2023-09-30T10:13:07;20.60;99.90
20158;DHT22;10239;56.820;24.416;2023-09-30T10:15:36;20.70;99.90
20158;DHT22;10239;56.820;24.416;2023-09-30T10:18:09;20.70;99.90
20158;DHT22;10239;56.820;24.416;2023-09-30T10:20:43;20.70;99.90
20158;DHT22;10239;56.820;24.416;2023-09-30T10:23:29;20.70;99.90
20158;DHT22;10239;56.820;24.416;2023-09-30T10:26:16;20.60;99.90
20158;DHT22;10239;56.820;24.416;2023-09-30T10:28:46;20.70;99.90
20158;DHT22;10239;56.820;24.416;2023-09-30T10:31:21;20.80;99.90
20158;DHT22;10239;56.820;24.416;2023-09-30T10:36:34;21.30;99.90
20158;DHT22;10239;56.820;24.416;2023-09-30T10:39:03;21.70;99.90
20158;DHT22;10239;56.820;24.416;2023-09-30T10:49:49;22.80;99.90
20158;DHT22;10239;56.820;24.416;2023-09-30T10:52:26;23.60;99.90
20158;DHT22;10239;56.820;24.416;2023-09-30T10:54:54;24.10;99.90
20158;DHT22;10239;56.820;24.416;2023-09-30T10:57:30;24.60;99.90
20158;DHT22;10239;56.820;24.416;2023-09-30T11:00:12;24.70;99.90
20158;DHT22;10239;56.820;24.416;2023-09-30T11:02:55;24.90;99.90
20158;DHT22;10239;56.820;24.416;2023-09-30T11:05:28;25.30;99.90
20158;DHT22;10239;56.820;24.416;2023-09-30T11:08:16;25.50;99.90
20158;DHT22;10239;56.820;24.416;2023-09-30T11:10:51;25.60;99.90
20158;DHT22;10239;56.820;24.416;2023-09-30T11:13:20;25.60;99.90
20158;DHT22;10239;56.820;24.416;2023-09-30T11:16:02;25.30;99.90
20158;DHT22;10239;56.820;24.416;2023-09-30T11:18:32;25.10;99.90
20158;DHT22;10239;56.820;24.416;2023-09-30T11:21:12;25.30;99.90
20158;DHT22;10239;56.820;24.416;2023-09-30T11:23:41;24.90;99.90
20158;DHT22;10239;56.820;24.416;2023-09-30T11:26:09;25.30;99.90
20158;DHT22;10239;56.820;24.416;2023-09-30T11:28:38;25.40;99.90
20158;DHT22;10239;56.820;24.416;2023-09-30T11:31:13;25.30;99.90
20158;DHT22;10239;56.820;24.416;2023-09-30T11:33:55;25.50;99.90
20158;DHT22;10239;56.820;24.416;2023-09-30T11:36:25;25.40;99.90
20158;DHT22;10239;56.820;24.416;2023-09-30T11:38:53;25.30;99.90
20158;DHT22;10239;56.820;24.416;2023-09-30T11:41:21;25.20;99.90
20158;DHT22;10239;56.820;24.416;2023-09-30T11:44:11;25.00;99.90
20158;DHT22;10239;56.820;24.416;2023-09-30T11:47:00;24.70;99.90
20158;DHT22;10239;56.820;24.416;2023-09-30T11:49:35;24.40;99.90
20158;DHT22;10239;56.820;24.416;2023-09-30T11:52:06;24.20;99.90
20158;DHT22;10239;56.820;24.416;2023-09-30T11:54:42;24.00;99.90
20158;DHT22;10239;56.820;24.416;2023-09-30T11:57:14;23.50;99.90
20158;DHT22;10239;56.820;24.416;2023-09-30T11:59:46;23.10;99.90
20158;DHT22;10239;56.820;24.416;2023-09-30T12:02:15;23.10;99.90
20158;DHT22;10239;56.820;24.416;2023-09-30T12:04:47;23.10;99.90
20158;DHT22;10239;56.820;24.416;2023-09-30T12:07:15;23.10;99.90
20158;DHT22;10239;56.820;24.416;2023-09-30T12:09:43;23.10;99.90
20158;DHT22;10239;56.820;24.416;2023-09-30T12:12:14;23.00;99.90
20158;DHT22;10239;56.820;24.416;2023-09-30T12:14:43;22.90;99.90
20158;DHT22;10239;56.820;24.416;2023-09-30T12:17:11;22.70;99.90
20158;DHT22;10239;56.820;24.416;2023-09-30T12:19:40;22.70;99.90
20158;DHT22;10239;56.820;24.416;2023-09-30T12:22:10;22.80;99.90
20158;DHT22;10239;56.820;24.416;2023-09-30T12:24:39;22.80;99.90
20158;DHT22;10239;56.820;24.416;2023-09-30T12:27:10;22.60;99.90
20158;DHT22;10239;56.820;24.416;2023-09-30T12:29:38;22.80;99.90
20158;DHT22;10239;56.820;24.416;2023-09-30T12:32:06;23.00;99.90
20158;DHT22;10239;56.820;24.416;2023-09-30T12:34:34;22.90;99.90
20158;DHT22;10239;56.820;24.416;2023-09-30T12:37:03;22.90;99.90
20158;DHT22;10239;56.820;24.416;2023-09-30T12:39:34;22.80;99.90
20158;DHT22;10239;56.820;24.416;2023-09-30T12:42:02;22.90;99.90
20158;DHT22;10239;56.820;24.416;2023-09-30T12:44:37;22.90;99.90
20158;DHT22;10239;56.820;24.416;2023-09-30T12:47:05;23.00;99.90
20158;DHT22;10239;56.820;24.416;2023-09-30T12:49:34;23.10;99.90
20158;DHT22;10239;56.820;24.416;2023-09-30T12:52:02;23.20;99.90
20158;DHT22;10239;56.820;24.416;2023-09-30T12:54:31;23.00;99.90
20158;DHT22;10239;56.820;24.416;2023-09-30T12:57:00;23.20;99.90
20158;DHT22;10239;56.820;24.416;2023-09-30T12:59:29;23.10;99.90
20158;DHT22;10239;56.820;24.416;2023-09-30T13:01:57;23.00;99.90
20158;DHT22;10239;56.820;24.416;2023-09-30T13:04:25;22.70;99.90
20158;DHT22;10239;56.820;24.416;2023-09-30T13:06:54;22.50;99.90
20158;DHT22;10239;56.820;24.416;2023-09-30T13:09:23;22.40;99.90
20158;DHT22;10239;56.820;24.416;2023-09-30T13:11:51;22.50;99.90
20158;DHT22;10239;56.820;24.416;2023-09-30T13:14:19;22.30;99.90
20158;DHT22;10239;56.820;24.416;2023-09-30T13:16:47;22.20;99.90
20158;DHT22;10239;56.820;24.416;2023-09-30T13:19:16;22.20;99.90
20158;DHT22;10239;56.820;24.416;2023-09-30T13:21:51;22.10;99.90
20158;DHT22;10239;56.820;24.416;2023-09-30T13:24:20;22.10;99.90
20158;DHT22;10239;56.820;24.416;2023-09-30T13:26:48;21.90;99.90
20158;DHT22;10239;56.820;24.416;2023-09-30T13:29:15;21.80;99.90
20158;DHT22;10239;56.820;24.416;2023-09-30T13:31:46;21.90;99.90
20158;DHT22;10239;56.820;24.416;2023-09-30T13:34:13;22.20;99.90
20158;DHT22;10239;56.820;24.416;2023-09-30T13:36:41;22.20;99.90
20158;DHT22;10239;56.820;24.416;2023-09-30T13:39:08;22.20;99.90
20158;DHT22;10239;56.820;24.416;2023-09-30T13:41:40;22.00;99.90
20158;DHT22;10239;56.820;24.416;2023-09-30T13:44:07;22.00;99.90
20158;DHT22;10239;56.820;24.416;2023-09-30T13:46:35;22.10;99.90
20158;DHT22;10239;56.820;24.416;2023-09-30T13:49:03;22.10;99.90
20158;DHT22;10239;56.820;24.416;2023-09-30T13:51:31;22.00;99.90
20158;DHT22;10239;56.820;24.416;2023-09-30T13:53:58;22.00;99.90
20158;DHT22;10239;56.820;24.416;2023-09-30T13:56:26;22.10;99.90
20158;DHT22;10239;56.820;24.416;2023-09-30T13:58:56;22.20;99.90
20158;DHT22;10239;56.820;24.416;2023-09-30T14:01:26;22.20;99.90
20158;DHT22;10239;56.820;24.416;2023-09-30T14:03:54;22.20;99.90
20158;DHT22;10239;56.820;24.416;2023-09-30T14:06:24;22.20;99.90
20158;DHT22;10239;56.820;24.416;2023-09-30T14:08:52;22.10;99.90
20158;DHT22;10239;56.820;24.416;2023-09-30T14:11:21;22.20;99.90
20158;DHT22;10239;56.820;24.416;2023-09-30T14:13:49;22.10;99.90
20158;DHT22;10239;56.820;24.416;2023-09-30T14:16:17;21.90;99.90
20158;DHT22;10239;56.820;24.416;2023-09-30T14:18:45;21.80;99.90
20158;DHT22;10239;56.820;24.416;2023-09-30T14:21:13;21.60;99.90
20158;DHT22;10239;56.820;24.416;2023-09-30T14:23:41;21.40;99.90
20158;DHT22;10239;56.820;24.416;2023-09-30T14:26:09;21.20;99.90
20158;DHT22;10239;56.820;24.416;2023-09-30T14:28:38;21.10;99.90
20158;DHT22;10239;56.820;24.416;2023-09-30T14:31:06;21.00;99.90
20158;DHT22;10239;56.820;24.416;2023-09-30T14:33:35;20.90;99.90
20158;DHT22;10239;56.820;24.416;2023-09-30T14:36:03;20.70;99.90
20158;DHT22;10239;56.820;24.416;2023-09-30T14:38:34;20.50;99.90
20158;DHT22;10239;56.820;24.416;2023-09-30T14:41:01;20.30;99.90
20158;DHT22;10239;56.820;24.416;2023-09-30T14:43:33;20.20;99.90
20158;DHT22;10239;56.820;24.416;2023-09-30T14:46:04;20.10;99.90
20158;DHT22;10239;56.820;24.416;2023-09-30T14:48:32;19.90;99.90
20158;DHT22;10239;56.820;24.416;2023-09-30T14:50:59;19.80;99.90
20158;DHT22;10239;56.820;24.416;2023-09-30T14:53:27;19.70;99.90
20158;DHT22;10239;56.820;24.416;2023-09-30T14:55:55;19.70;99.90
20158;DHT22;10239;56.820;24.416;2023-09-30T14:58:22;19.60;99.90
20158;DHT22;10239;56.820;24.416;2023-09-30T15:00:50;19.50;99.90
20158;DHT22;10239;56.820;24.416;2023-09-30T15:03:17;19.40;99.90
20158;DHT22;10239;56.820;24.416;2023-09-30T15:05:45;19.30;99.90
20158;DHT22;10239;56.820;24.416;2023-09-30T15:08:12;19.20;99.90
20158;DHT22;10239;56.820;24.416;2023-09-30T15:10:40;19.00;99.90
20158;DHT22;10239;56.820;24.416;2023-09-30T15:13:07;18.80;99.90
20158;DHT22;10239;56.820;24.416;2023-09-30T15:15:36;18.80;99.90
20158;DHT22;10239;56.820;24.416;2023-09-30T15:18:04;18.70;99.90
20158;DHT22;10239;56.820;24.416;2023-09-30T15:20:38;18.60;99.90
20158;DHT22;10239;56.820;24.416;2023-09-30T15:23:07;18.50;99.90
20158;DHT22;10239;56.820;24.416;2023-09-30T15:25:40;18.50;99.90
20158;DHT22;10239;56.820;24.416;2023-09-30T15:28:09;18.40;99.90
20158;DHT22;10239;56.820;24.416;2023-09-30T15:30:37;18.40;99.90
20158;DHT22;10239;56.820;24.416;2023-09-30T15:33:04;18.40;99.90
20158;DHT22;10239;56.820;24.416;2023-09-30T15:35:32;18.30;99.90
20158;DHT22;10239;56.820;24.416;2023-09-30T15:37:59;18.30;99.90
20158;DHT22;10239;56.820;24.416;2023-09-30T15:40:27;18.20;99.90
20158;DHT22;10239;56.820;24.416;2023-09-30T15:42:54;18.10;99.90
20158;DHT22;10239;56.820;24.416;2023-09-30T15:45:22;18.00;99.90